Latest Coastal Weather Observations for Roebourne Airport

IDW60701

Issued at 7:22 pm WST Tuesday 7 July 2015 (issued every 10 minutes, with the page automatically refreshed every 10 minutes)

About coastal observations | Map of coastal stations | Coastal observations for WA | Marine services | Other Formats
Station Details ID: 004090 Name: ROEBOURNE AERO Lat: -20.76 Lon: 117.16 Height: 10.7 m
Data from the previous 72 hours. | See also: Recent months at Roebourne Airport
Date/Time
WST
Temp

°C
Wind Pressure Rain
since 9am
mm
Weather Cloud Vis
km
Sea
Height
m
Swell
Dir
 
Speed
knots
Gust
knots
hPa Trend Height
m
Period
s
Dir
07/07:00pm 16.7 NNW 5 6 1015.4 - 0.0 - - - - - - -
07/06:30pm 18.7 NNW 7 9 1015.2 - 0.0 - - - - - - -
07/06:00pm 20.5 NNW 5 6 1014.9 - 0.0 - - - - - - -
07/05:30pm 23.5 N 6 6 1014.7 - 0.0 - - - - - - -
07/05:00pm 25.6 NNE 8 11 1014.7 - 0.0 - - - - - - -
07/04:30pm 26.8 NNE 9 12 1014.4 - 0.0 - - - - - - -
07/04:00pm 27.3 NNE 10 13 1014.4 - 0.0 - - - - - - -
07/03:30pm 27.4 N 11 15 1014.4 - 0.0 - - - - - - -
07/03:00pm 27.6 NNE 12 16 1014.2 - 0.0 - - - - - - -
07/02:30pm 28.1 NNE 13 17 1014.4 - 0.0 - - - - - - -
07/02:00pm 28.1 NE 13 17 1014.6 - 0.0 - - - - - - -
07/01:30pm 28.1 NE 11 15 1015.1 - 0.0 - - - - - - -
07/01:00pm 28.7 NE 12 17 1015.4 - 0.0 - - - - - - -
07/12:30pm 28.1 ENE 9 16 1015.8 - 0.0 - - - - - - -
07/12:00pm 27.8 ENE 11 15 1016.4 - 0.0 - - - - - - -
07/11:30am 27.2 E 12 16 1016.9 - 0.0 - - - - - - -
07/11:00am 26.9 E 10 15 1017.2 - 0.0 - - - - - - -
07/10:30am 25.6 ESE 10 13 1017.6 - 0.0 - - - - - - -
07/10:00am 24.9 ESE 10 12 1017.8 - 0.0 - - - - - - -
07/09:30am 23.7 ESE 11 14 1017.8 - 0.0 - - - - - - -
07/09:00am 22.3 ESE 9 13 1017.6 - 0.0 - - - - - - -
07/08:30am 18.9 SSE 1 4 1017.2 - 0.0 - - - - - - -
07/08:00am 15.0 CALM 0 0 1016.8 - 0.0 - - - - - - -
07/07:30am 11.7 CALM 0 2 1016.6 - 0.0 - - - - - - -
07/07:00am 9.1 CALM 0 3 1016.3 - 0.0 - - - - - - -
07/06:30am 10.4 SSW 4 5 1016.0 - 0.0 - - - - - - -
07/06:00am 10.7 SW 8 9 1015.8 - 0.0 - - - - - - -
07/05:30am 11.3 SW 7 7 1015.8 - 0.0 - - - - - - -
07/05:00am 11.6 SW 8 9 1015.9 - 0.0 - - - - - - -
07/04:30am 12.2 SSW 10 11 1015.8 - 0.0 - - - - - - -
07/04:00am 11.5 SW 9 10 1015.8 - 0.0 - - - - - - -
07/03:30am 11.4 SW 8 9 1015.6 - 0.0 - - - - - - -
07/03:00am 12.6 SW 4 5 1015.7 - 0.0 - - - - - - -
07/02:30am 11.4 SW 6 7 1016.0 - 0.0 - - - - - - -
07/02:00am 10.6 SW 6 7 1016.1 - 0.0 - - - - - - -
07/01:30am 10.4 SSW 5 6 1016.3 - 0.0 - - - - - - -
07/01:00am 10.0 SW 5 7 1016.6 - 0.0 - - - - - - -
07/12:30am 10.4 SW 6 7 1016.5 - 0.0 - - - - - - -
07/12:00am 11.9 WSW 3 3 1016.6 - 0.0 - - - - - - -
 
Date/Time
WST
Temp

°C
Wind Pressure Rain
since 9am
mm
Weather Cloud Vis
km
Sea
Height
m
Swell
Dir
 
Speed
knots
Gust
knots
hPa Trend Height
m
Period
s
Dir
06/11:30pm 12.1 SSW 6 7 1016.6 - 0.0 - - - - - - -
06/11:00pm 12.8 SW 5 6 1016.8 - 0.0 - - - - - - -
06/10:30pm 12.4 SW 5 6 1016.9 - 0.0 - - - - - - -
06/10:00pm 13.3 WSW 4 5 1016.8 - 0.0 - - - - - - -
06/09:30pm 13.4 NW 3 4 1017.0 - 0.0 - - - - - - -
06/09:00pm 14.2 S 5 6 1017.1 - 0.0 - - - - - - -
06/08:30pm 15.1 SSW 7 8 1017.1 - 0.0 - - - - - - -
06/08:00pm 15.1 S 3 4 1017.0 - 0.0 - - - - - - -
06/07:30pm 15.3 NW 2 4 1016.7 - 0.0 - - - - - - -
06/07:00pm 16.9 N 1 3 1016.6 - 0.0 - - - - - - -
06/06:30pm 18.9 N 5 6 1016.2 - 0.0 - - - - - - -
06/06:00pm 20.9 N 5 5 1015.9 - 0.0 - - - - - - -
06/05:30pm 23.2 N 5 7 1015.7 - 0.0 - - - - - - -
06/05:00pm 24.8 N 9 11 1015.6 - 0.0 - - - - - - -
06/04:30pm 25.7 NNE 11 14 1015.5 - 0.0 - - - - - - -
06/04:00pm 26.3 NNE 11 13 1015.5 - 0.0 - - - - - - -
06/03:30pm 27.0 NNE 11 14 1015.5 - 0.0 - - - - - - -
06/03:00pm 27.4 NNE 11 14 1015.4 - 0.0 - - - - - - -
06/02:30pm 27.5 NNE 13 16 1015.5 - 0.0 - - - - - - -
06/02:00pm 27.7 NNE 12 16 1015.6 - 0.0 - - - - - - -
06/01:30pm 27.9 NE 13 17 1015.9 - 0.0 - - - - - - -
06/01:00pm 27.9 NE 13 18 1016.2 - 0.0 - - - - - - -
06/12:30pm 27.5 NE 13 17 1016.7 - 0.0 - - - - - - -
06/12:00pm 27.5 NE 13 17 1017.1 - 0.0 - - - - - - -
06/11:30am 27.8 NE 13 18 1017.3 - 0.0 - - - - - - -
06/11:00am 27.1 ENE 11 16 1017.7 - 0.0 - - - - - - -
06/10:30am 26.5 E 10 14 1018.1 - 0.0 - - - - - - -
06/10:00am 25.1 E 9 11 1018.4 - 0.0 - - - - - - -
06/09:30am 24.0 ESE 9 12 1018.4 - 0.0 - - - - - - -
06/09:00am 22.1 ESE 7 9 1018.5 - 0.0 - - - - - - -
06/08:30am 19.3 CALM 0 0 1018.4 - 0.0 - - - - - - -
06/08:00am 15.4 CALM 0 3 1018.1 - 0.0 - - - - - - -
06/07:30am 11.2 SW 4 4 1017.8 - 0.0 - - - - - - -
06/07:00am 9.6 SSW 4 5 1017.5 - 0.0 - - - - - - -
06/06:30am 9.0 SW 3 5 1017.4 - 0.0 - - - - - - -
06/06:00am 8.7 CALM 0 0 1017.1 - 0.0 - - - - - - -
06/05:30am 8.7 CALM 0 0 1016.9 - 0.0 - - - - - - -
06/05:00am 9.4 CALM 0 0 1016.8 - 0.0 - - - - - - -
06/04:30am 9.6 CALM 0 0 1016.8 - 0.0 - - - - - - -
06/04:00am 10.0 SW 5 5 1016.7 - 0.0 - - - - - - -
06/03:30am 9.9 CALM 0 0 1016.6 - 0.0 - - - - - - -
06/03:00am 10.7 CALM 0 3 1016.6 - 0.0 - - - - - - -
06/02:30am 11.4 SW 2 4 1016.9 - 0.0 - - - - - - -
06/02:00am 13.4 SW 6 8 1017.1 - 0.0 - - - - - - -
06/01:30am 13.1 SW 7 9 1017.3 - 0.0 - - - - - - -
06/01:00am 12.9 SW 7 8 1017.6 - 0.0 - - - - - - -
06/12:30am 12.1 SW 5 6 1017.8 - 0.0 - - - - - - -
06/12:00am 11.8 SW 7 8 1018.0 - 0.0 - - - - - - -
 
Date/Time
WST
Temp

°C
Wind Pressure Rain
since 9am
mm
Weather Cloud Vis
km
Sea
Height
m
Swell
Dir
 
Speed
knots
Gust
knots
hPa Trend Height
m
Period
s
Dir
05/11:30pm 12.3 SSW 7 8 1018.0 - 0.0 - - - - - - -
05/11:00pm 12.5 SW 4 5 1017.8 - 0.0 - - - - - - -
05/10:30pm 13.7 SW 5 6 1017.8 - 0.0 - - - - - - -
05/10:00pm 13.5 SW 7 8 1017.8 - 0.0 - - - - - - -
05/09:30pm 13.9 WSW 4 5 1017.8 - 0.0 - - - - - - -
05/09:00pm 14.3 SSW 6 8 1017.8 - 0.0 - - - - - - -
05/08:30pm 14.3 SSW 6 8 1017.8 - 0.0 - - - - - - -
05/08:00pm 14.9 CALM 0 4 1017.5 - 0.0 - - - - - - -
05/07:30pm 16.2 SSW 2 4 1017.2 - 0.0 - - - - - - -
05/07:00pm 16.5 WSW 3 4 1017.1 - 0.0 - - - - - - -
05/06:30pm 19.4 N 1 3 1016.9 - 0.0 - - - - - - -
05/06:00pm 20.5 NNE 5 6 1016.8 - 0.0 - - - - - - -
05/05:30pm 22.6 N 6 7 1016.8 - 0.0 - - - - - - -
05/05:00pm 24.4 NNE 8 9 1016.7 - 0.0 - - - - - - -
05/04:30pm 25.3 NNE 10 12 1016.7 - 0.0 - - - - - - -
05/04:00pm 25.9 NNE 11 15 1016.6 - 0.0 - - - - - - -
05/03:30pm 27.1 NNE 10 14 1016.7 - 0.0 - - - - - - -
05/03:00pm 27.9 NNE 10 13 1016.6 - 0.0 - - - - - - -
05/02:30pm 28.0 NE 11 15 1016.7 - 0.0 - - - - - - -
05/02:00pm 28.0 NE 12 17 1017.0 - 0.0 - - - - - - -
05/01:30pm 28.3 NE 13 17 1017.3 - 0.0 - - - - - - -
05/01:00pm 28.0 ENE 12 16 1017.8 - 0.0 - - - - - - -
05/12:30pm 28.4 ENE 12 17 1018.3 - 0.0 - - - - - - -
05/12:00pm 28.1 E 12 19 1019.0 - 0.0 - - - - - - -
05/11:30am 27.4 ENE 14 19 1019.5 - 0.0 - - - - - - -
05/11:00am 26.8 E 13 18 1020.0 - 0.0 - - - - - - -
05/10:30am 25.9 E 14 17 1020.2 - 0.0 - - - - - - -
05/10:00am 25.6 E 13 17 1020.3 - 0.0 - - - - - - -
05/09:30am 24.5 ESE 12 18 1020.4 - 0.0 - - - - - - -
05/09:00am 22.9 ESE 12 15 1020.5 - 0.0 - - - - - - -
05/08:30am 21.8 ESE 9 12 1020.2 - 0.0 - - - - - - -
05/08:00am 17.8 CALM 0 0 1019.7 - 0.0 - - - - - - -
05/07:30am 13.0 SSE 3 5 1019.5 - 0.0 - - - - - - -
05/07:00am 10.2 S 5 6 1019.3 - 0.0 - - - - - - -
05/06:30am 10.2 S 3 4 1019.0 - 0.0 - - - - - - -
05/06:00am 10.0 SSW 3 4 1018.6 - 0.0 - - - - - - -
05/05:30am 10.2 SSW 3 4 1018.5 - 0.0 - - - - - - -
05/05:00am 10.1 CALM 0 3 1018.3 - 0.0 - - - - - - -
05/04:30am 10.4 CALM 0 0 1018.2 - 0.0 - - - - - - -
05/04:00am 9.7 CALM 0 0 1018.2 - 0.0 - - - - - - -
05/03:30am 9.9 CALM 0 0 1018.0 - 0.0 - - - - - - -
05/03:00am 10.5 CALM 0 0 1018.1 - 0.0 - - - - - - -
05/02:30am 10.7 CALM 0 0 1018.1 - 0.0 - - - - - - -
05/02:00am 11.2 SW 4 5 1018.3 - 0.0 - - - - - - -
05/01:30am 11.2 SW 2 4 1018.3 - 0.0 - - - - - - -
05/01:00am 11.6 WSW 2 3 1018.4 - 0.0 - - - - - - -
05/12:30am 13.2 SW 4 6 1018.4 - 0.0 - - - - - - -
05/12:00am 13.0 SW 3 5 1018.5 - 0.0 - - - - - - -
 
Date/Time
WST
Temp

°C
Wind Pressure Rain
since 9am
mm
Weather Cloud Vis
km
Sea
Height
m
Swell
Dir
 
Speed
knots
Gust
knots
hPa Trend Height
m
Period
s
Dir
04/11:30pm 11.5 SW 5 6 1018.6 - 0.0 - - - - - - -
04/11:00pm 12.6 SSW 5 6 1018.6 - 0.0 - - - - - - -
04/10:30pm 14.2 SSW 1 4 1018.5 - 0.0 - - - - - - -
04/10:00pm 14.1 SW 3 4 1018.7 - 0.0 - - - - - - -
04/09:30pm 14.8 SW 4 5 1018.7 - 0.0 - - - - - - -
04/09:00pm 15.3 SSW 5 6 1018.6 - 0.0 - - - - - - -
04/08:30pm 15.2 SSW 2 4 1018.4 - 0.0 - - - - - - -
04/08:00pm 16.8 CALM 0 0 1018.1 - 0.0 - - - - - - -
04/07:30pm 17.9 CALM 0 0 1017.9 - 0.0 - - - - - - -

Other Formats:

Comma delimited format used in spreadsheet applications
http://www.bom.gov.au/fwo/IDW60701/IDW60701.94308.axf

JavaScript Object Notation format (JSON) in row-major order
http://www.bom.gov.au/fwo/IDW60701/IDW60701.94308.json